createdAt,value
2023-02-08T00:01:16.481Z,-5.65
2023-02-08T00:03:45.030Z,-5.60
2023-02-08T00:06:13.447Z,-5.54
2023-02-08T00:08:41.161Z,-5.53
2023-02-08T00:11:12.485Z,-5.50
2023-02-08T00:13:42.255Z,-5.51
2023-02-08T00:16:12.793Z,-5.59
2023-02-08T00:18:40.967Z,-5.67
2023-02-08T00:21:13.503Z,-5.79
2023-02-08T00:23:41.539Z,-5.83
2023-02-08T00:26:10.029Z,-5.91
2023-02-08T00:28:38.174Z,-5.95
2023-02-08T00:31:06.183Z,-5.99
2023-02-08T00:33:35.212Z,-5.97
2023-02-08T00:36:05.749Z,-6.12
2023-02-08T00:38:34.034Z,-6.08
2023-02-08T00:41:01.512Z,-6.07
2023-02-08T00:43:29.181Z,-6.10
2023-02-08T00:45:58.502Z,-5.99
2023-02-08T00:48:27.533Z,-5.90
2023-02-08T00:51:04.401Z,-6.00
2023-02-08T00:53:36.308Z,-6.08
2023-02-08T00:56:04.181Z,-6.08
2023-02-08T00:58:32.756Z,-6.07
2023-02-08T01:01:00.219Z,-6.07
2023-02-08T01:03:28.180Z,-6.05
2023-02-08T01:06:01.593Z,-6.03
2023-02-08T01:08:29.251Z,-6.00
2023-02-08T01:11:05.984Z,-5.97
2023-02-08T01:13:33.756Z,-6.03
2023-02-08T01:16:10.985Z,-5.99
2023-02-08T01:18:40.309Z,-5.97
2023-02-08T01:21:11.236Z,-5.98
2023-02-08T01:23:39.996Z,-5.94
2023-02-08T01:26:09.010Z,-5.90
2023-02-08T01:28:37.714Z,-5.97
2023-02-08T01:31:12.568Z,-5.94
2023-02-08T01:33:40.886Z,-5.89
2023-02-08T01:36:09.754Z,-5.90
2023-02-08T01:38:38.391Z,-5.86
2023-02-08T01:41:08.772Z,-5.84
2023-02-08T01:44:02.810Z,-5.82
2023-02-08T01:46:37.412Z,-5.73
2023-02-08T01:49:11.648Z,-5.66
2023-02-08T01:51:45.834Z,-5.55
2023-02-08T01:54:17.097Z,-5.50
2023-02-08T01:56:47.280Z,-5.31
2023-02-08T01:59:26.528Z,-5.16
2023-02-08T02:01:57.487Z,-4.89
2023-02-08T02:04:26.615Z,-4.74
2023-02-08T02:06:57.775Z,-4.76
2023-02-08T02:09:38.379Z,-4.78
2023-02-08T02:12:09.016Z,-4.70
2023-02-08T02:14:39.048Z,-4.71
2023-02-08T02:17:07.076Z,-4.70
2023-02-08T02:19:48.430Z,-4.62
2023-02-08T02:22:31.678Z,-4.54
2023-02-08T02:25:18.228Z,-4.40
2023-02-08T02:28:04.851Z,-4.27
2023-02-08T02:30:52.594Z,-4.18
2023-02-08T02:34:01.330Z,-4.07
2023-02-08T02:37:11.537Z,-4.02
2023-02-08T02:40:01.399Z,-3.92
2023-02-08T02:43:15.696Z,-3.88
2023-02-08T02:45:50.372Z,-3.77
2023-02-08T02:48:40.521Z,-3.70
2023-02-08T02:51:28.799Z,-3.69
2023-02-08T02:54:03.440Z,-3.66
2023-02-08T02:56:37.142Z,-3.61
2023-02-08T02:59:08.382Z,-3.61
2023-02-08T03:01:37.267Z,-3.47
2023-02-08T03:04:19.871Z,-3.40
2023-02-08T03:07:11.121Z,-3.28
2023-02-08T03:09:44.672Z,-3.20
2023-02-08T03:12:12.452Z,-3.11
2023-02-08T03:14:52.073Z,-3.09
2023-02-08T03:17:39.289Z,-3.04
2023-02-08T03:20:15.818Z,-3.00
2023-02-08T03:22:45.712Z,-2.95
2023-02-08T03:25:26.108Z,-2.93
2023-02-08T03:28:14.779Z,-2.86
2023-02-08T03:31:10.299Z,-2.84
2023-02-08T03:33:55.458Z,-2.82
2023-02-08T03:36:49.039Z,-2.78
2023-02-08T03:39:23.113Z,-2.75
2023-02-08T03:41:55.857Z,-2.75
2023-02-08T03:44:32.281Z,-2.63
2023-02-08T03:47:17.028Z,-2.57
2023-02-08T03:49:49.400Z,-2.47
2023-02-08T03:52:17.161Z,-2.39
2023-02-08T03:55:09.172Z,-2.33
2023-02-08T03:58:04.096Z,-2.25
2023-02-08T04:00:36.414Z,-2.17
2023-02-08T04:03:16.542Z,-2.10
2023-02-08T04:05:44.525Z,-2.09
2023-02-08T04:08:12.363Z,-2.00
2023-02-08T04:10:40.218Z,-2.00
2023-02-08T04:13:07.814Z,-1.95
2023-02-08T04:15:35.670Z,-1.94
2023-02-08T04:18:03.436Z,-1.92
2023-02-08T04:20:31.129Z,-1.91
2023-02-08T04:22:58.917Z,-1.90
2023-02-08T04:25:26.580Z,-1.88
2023-02-08T04:27:54.752Z,-1.84
2023-02-08T04:30:22.613Z,-1.79
2023-02-08T04:32:50.182Z,-1.77
2023-02-08T04:35:17.706Z,-1.70
2023-02-08T04:37:45.615Z,-1.70
2023-02-08T04:40:13.357Z,-1.69
2023-02-08T04:42:40.884Z,-1.73
2023-02-08T04:45:09.709Z,-1.69
2023-02-08T04:47:37.302Z,-1.66
2023-02-08T04:50:05.377Z,-1.63
2023-02-08T04:52:33.230Z,-1.63
2023-02-08T04:55:00.718Z,-1.56
2023-02-08T04:57:28.202Z,-1.56
2023-02-08T04:59:56.022Z,-1.55
2023-02-08T05:02:23.540Z,-1.52
2023-02-08T05:04:51.037Z,-1.51
2023-02-08T05:07:18.843Z,-1.49
2023-02-08T05:09:46.325Z,-1.50
2023-02-08T05:12:13.842Z,-1.49
2023-02-08T05:14:41.667Z,-1.45
2023-02-08T05:17:09.147Z,-1.45
2023-02-08T05:19:37.236Z,-1.44
2023-02-08T05:22:05.082Z,-1.40
2023-02-08T05:24:32.585Z,-1.37
2023-02-08T05:27:00.060Z,-1.37
2023-02-08T05:29:28.019Z,-1.38
2023-02-08T05:31:55.527Z,-1.37
2023-02-08T05:34:23.062Z,-1.34
2023-02-08T05:36:50.864Z,-1.33
2023-02-08T05:39:18.409Z,-1.36
2023-02-08T05:41:45.985Z,-1.28
2023-02-08T05:44:13.759Z,-1.28
2023-02-08T05:46:41.348Z,-1.27
2023-02-08T05:49:08.889Z,-1.25
2023-02-08T05:51:36.736Z,-1.28
2023-02-08T05:54:04.918Z,-1.28
2023-02-08T05:56:32.917Z,-1.28
2023-02-08T05:59:01.794Z,-1.25
2023-02-08T06:01:29.792Z,-1.25
2023-02-08T06:03:59.839Z,-1.29
2023-02-08T06:06:28.422Z,-1.24
2023-02-08T06:08:56.018Z,-1.23
2023-02-08T06:11:23.792Z,-1.21
2023-02-08T06:13:51.243Z,-1.27
2023-02-08T06:16:20.052Z,-1.30
2023-02-08T06:18:48.043Z,-1.40
2023-02-08T06:21:15.572Z,-1.35
2023-02-08T06:23:43.288Z,-1.30
2023-02-08T06:26:11.413Z,-1.26
2023-02-08T06:28:38.866Z,-1.22
2023-02-08T06:31:06.374Z,-1.22
2023-02-08T06:33:34.149Z,-1.33
2023-02-08T06:36:01.688Z,-1.41
2023-02-08T06:38:29.273Z,-1.54
2023-02-08T06:40:57.238Z,-1.56
2023-02-08T06:43:26.045Z,-1.51
2023-02-08T06:45:53.542Z,-1.39
2023-02-08T06:48:21.346Z,-1.48
2023-02-08T06:50:48.861Z,-1.61
2023-02-08T06:53:16.413Z,-1.56
2023-02-08T06:55:49.262Z,-1.42
2023-02-08T06:58:17.508Z,-1.40
2023-02-08T07:00:48.207Z,-1.42
2023-02-08T07:03:17.687Z,-1.42
2023-02-08T07:06:02.493Z,-1.51
2023-02-08T07:08:32.094Z,-1.65
2023-02-08T07:10:59.918Z,-1.66
2023-02-08T07:13:27.398Z,-1.64
2023-02-08T07:15:54.871Z,-1.69
2023-02-08T07:18:22.856Z,-1.67
2023-02-08T07:20:50.338Z,-1.63
2023-02-08T07:23:17.841Z,-1.59
2023-02-08T07:25:46.122Z,-1.57
2023-02-08T07:28:13.652Z,-1.56
2023-02-08T07:30:41.518Z,-1.48
2023-02-08T07:33:09.541Z,-1.44
2023-02-08T07:35:37.130Z,-1.45
2023-02-08T07:38:04.638Z,-1.47
2023-02-08T07:40:32.477Z,-1.33
2023-02-08T07:43:00.029Z,-1.34
2023-02-08T07:45:28.187Z,-1.33
2023-02-08T07:47:56.026Z,-1.36
2023-02-08T07:50:23.712Z,-1.31
2023-02-08T07:52:51.267Z,-1.31
2023-02-08T07:55:20.564Z,-1.20
2023-02-08T07:57:49.806Z,-1.19
2023-02-08T08:00:19.329Z,-1.15
2023-02-08T08:02:47.304Z,-1.21
2023-02-08T08:05:14.832Z,-1.02
2023-02-08T08:07:42.360Z,-0.92
2023-02-08T08:10:10.333Z,-0.70
2023-02-08T08:12:37.886Z,-0.01
2023-02-08T08:15:05.921Z,0.79
2023-02-08T08:17:33.698Z,0.89
2023-02-08T08:20:01.156Z,0.89
2023-02-08T08:22:28.719Z,0.80
2023-02-08T08:24:58.211Z,0.62
2023-02-08T08:27:25.804Z,0.91
2023-02-08T08:29:53.628Z,1.03
2023-02-08T08:32:21.483Z,1.19
2023-02-08T08:34:48.998Z,1.18
2023-02-08T08:37:16.463Z,1.81
2023-02-08T08:39:44.779Z,2.05
2023-02-08T08:42:12.313Z,2.11
2023-02-08T08:44:40.132Z,2.46
2023-02-08T08:47:09.245Z,2.72
2023-02-08T08:49:36.786Z,2.60
2023-02-08T08:52:06.332Z,2.21
2023-02-08T08:54:34.885Z,1.74
2023-02-08T08:57:02.805Z,1.28
2023-02-08T08:59:30.506Z,1.65
2023-02-08T09:01:58.334Z,2.03
2023-02-08T09:04:26.379Z,1.86
2023-02-08T09:06:54.878Z,2.22
2023-02-08T09:09:23.161Z,2.59
2023-02-08T09:11:50.765Z,2.92
2023-02-08T09:14:18.394Z,3.11
2023-02-08T09:16:48.136Z,3.02
2023-02-08T09:19:16.449Z,3.43
2023-02-08T09:21:44.256Z,3.51
2023-02-08T09:24:12.295Z,3.65
2023-02-08T09:26:39.989Z,3.72
2023-02-08T09:29:07.649Z,3.53
2023-02-08T09:31:37.916Z,3.76
2023-02-08T09:34:06.818Z,3.96
2023-02-08T09:36:40.761Z,3.91
2023-02-08T09:39:14.855Z,4.40
2023-02-08T09:42:03.358Z,4.23
2023-02-08T09:45:00.116Z,4.22
2023-02-08T09:47:27.557Z,3.96
2023-02-08T09:50:19.849Z,4.02
2023-02-08T09:53:00.965Z,4.12
2023-02-08T09:55:37.098Z,4.08
2023-02-08T09:58:24.309Z,3.23
2023-02-08T10:00:54.211Z,2.81
2023-02-08T10:03:45.082Z,3.02
2023-02-08T10:06:16.650Z,3.32
2023-02-08T10:08:47.873Z,2.96
2023-02-08T10:11:35.212Z,2.82
2023-02-08T10:14:33.749Z,3.02
2023-02-08T10:17:23.785Z,3.08
2023-02-08T10:20:25.072Z,3.59
2023-02-08T10:23:07.851Z,4.11
2023-02-08T10:25:44.178Z,4.93
2023-02-08T10:28:29.946Z,4.57
2023-02-08T10:31:09.353Z,4.89
2023-02-08T10:33:54.629Z,5.10
2023-02-08T10:36:29.710Z,5.44
2023-02-08T10:38:58.425Z,4.27
2023-02-08T10:41:37.565Z,3.73
2023-02-08T10:44:22.875Z,3.51
2023-02-08T10:46:58.010Z,3.79
2023-02-08T10:49:52.721Z,4.24
2023-02-08T10:52:20.633Z,3.93
2023-02-08T10:54:48.206Z,3.66
2023-02-08T10:57:23.754Z,3.67
2023-02-08T10:59:56.464Z,3.35
2023-02-08T11:02:31.690Z,3.47
2023-02-08T11:05:03.292Z,3.08
2023-02-08T11:07:33.636Z,2.81
2023-02-08T11:10:18.186Z,2.92
2023-02-08T11:12:56.790Z,2.83
2023-02-08T11:15:34.496Z,3.18
2023-02-08T11:18:03.928Z,3.77
2023-02-08T11:20:36.832Z,4.42
2023-02-08T11:23:24.824Z,4.49
2023-02-08T11:25:53.819Z,4.56
2023-02-08T11:28:31.589Z,4.79
2023-02-08T11:31:02.651Z,4.96
2023-02-08T11:33:30.981Z,5.16
2023-02-08T11:36:05.443Z,4.75
2023-02-08T11:38:35.504Z,4.96
2023-02-08T11:41:13.821Z,4.48
2023-02-08T11:43:42.225Z,4.05
2023-02-08T11:46:11.397Z,3.92
2023-02-08T11:48:51.426Z,3.70
2023-02-08T11:51:33.129Z,3.18
2023-02-08T11:54:01.351Z,3.07
2023-02-08T11:56:34.548Z,2.92
2023-02-08T11:59:03.742Z,2.69
2023-02-08T12:01:37.323Z,2.67
2023-02-08T12:04:10.462Z,2.65
2023-02-08T12:06:52.878Z,2.49
2023-02-08T12:09:31.554Z,3.11
2023-02-08T12:12:17.733Z,2.68
2023-02-08T12:15:10.151Z,2.70
2023-02-08T12:18:07.057Z,3.01
2023-02-08T12:20:42.104Z,3.44
2023-02-08T12:23:32.699Z,3.93
2023-02-08T12:26:23.370Z,4.18
2023-02-08T12:29:06.495Z,4.40
2023-02-08T12:31:56.863Z,4.37
2023-02-08T12:35:02.581Z,4.11
2023-02-08T12:38:09.455Z,4.35
2023-02-08T12:40:59.397Z,4.17
2023-02-08T12:43:51.617Z,3.43
2023-02-08T12:46:37.582Z,3.32
2023-02-08T12:49:11.591Z,2.84
2023-02-08T12:51:54.993Z,2.66
2023-02-08T12:54:44.579Z,2.45
2023-02-08T12:57:18.334Z,2.81
2023-02-08T12:59:51.759Z,2.99
2023-02-08T13:02:32.521Z,3.33
2023-02-08T13:05:06.660Z,3.57
2023-02-08T13:07:40.022Z,3.92
2023-02-08T13:10:26.875Z,4.22
2023-02-08T13:12:58.786Z,4.03
2023-02-08T13:15:55.905Z,4.19
2023-02-08T13:18:40.186Z,3.65
2023-02-08T13:21:15.130Z,3.53
2023-02-08T13:23:53.151Z,3.92
2023-02-08T13:26:26.738Z,3.93
2023-02-08T13:29:01.476Z,3.74
2023-02-08T13:31:36.193Z,3.54
2023-02-08T13:34:22.234Z,3.38
2023-02-08T13:36:57.507Z,2.98
2023-02-08T13:39:44.620Z,3.14
2023-02-08T13:42:42.861Z,3.54
2023-02-08T13:45:25.247Z,3.65
2023-02-08T13:48:02.251Z,3.83
2023-02-08T13:50:44.987Z,4.03
2023-02-08T13:53:14.997Z,4.36
2023-02-08T13:55:53.434Z,4.52
2023-02-08T13:58:58.094Z,4.41
2023-02-08T14:01:28.819Z,4.47
2023-02-08T14:04:08.684Z,4.40
2023-02-08T14:07:12.368Z,4.33
2023-02-08T14:09:48.988Z,4.22
2023-02-08T14:12:24.529Z,3.90
2023-02-08T14:15:08.735Z,3.79
2023-02-08T14:17:36.571Z,3.99
2023-02-08T14:20:07.426Z,3.84
2023-02-08T14:22:50.703Z,3.90
2023-02-08T14:25:22.320Z,3.94
2023-02-08T14:27:56.132Z,3.80
2023-02-08T14:30:27.597Z,3.44
2023-02-08T14:33:12.641Z,2.99
2023-02-08T14:35:50.670Z,2.81
2023-02-08T14:38:24.118Z,2.75
2023-02-08T14:40:54.775Z,2.54
2023-02-08T14:43:41.148Z,2.52
2023-02-08T14:46:42.835Z,2.47
2023-02-08T14:49:17.104Z,2.32
2023-02-08T14:51:58.226Z,2.26
2023-02-08T14:54:37.016Z,2.35
2023-02-08T14:57:07.702Z,2.54
2023-02-08T14:59:35.792Z,2.67
2023-02-08T15:02:12.830Z,2.76
2023-02-08T15:04:45.517Z,2.76
2023-02-08T15:07:33.368Z,2.72
2023-02-08T15:10:12.817Z,2.66
2023-02-08T15:12:43.373Z,2.46
2023-02-08T15:15:43.965Z,2.41
2023-02-08T15:18:24.310Z,2.24
2023-02-08T15:21:03.740Z,2.24
2023-02-08T15:23:31.522Z,2.21
2023-02-08T15:26:06.076Z,2.10
2023-02-08T15:28:36.925Z,2.03
2023-02-08T15:31:11.582Z,1.99
2023-02-08T15:33:42.634Z,1.90
2023-02-08T15:36:18.513Z,1.75
2023-02-08T15:38:46.297Z,1.72
2023-02-08T15:41:23.879Z,1.59
2023-02-08T15:43:51.497Z,1.53
2023-02-08T15:46:23.755Z,1.39
2023-02-08T15:48:52.542Z,1.27
2023-02-08T15:51:23.294Z,1.19
2023-02-08T15:53:53.944Z,1.28
2023-02-08T15:56:37.181Z,1.22
2023-02-08T15:59:14.804Z,1.06
2023-02-08T16:01:47.515Z,1.04
2023-02-08T16:04:16.887Z,0.97
2023-02-08T16:06:56.753Z,0.97
2023-02-08T16:09:29.070Z,0.82
2023-02-08T16:12:00.425Z,0.71
2023-02-08T16:14:30.871Z,0.68
2023-02-08T16:16:59.772Z,0.64
2023-02-08T16:19:30.182Z,0.52
2023-02-08T16:22:23.086Z,0.43
2023-02-08T16:24:51.017Z,0.33
2023-02-08T16:27:27.477Z,0.29
2023-02-08T16:29:55.624Z,0.28
2023-02-08T16:32:31.730Z,0.29
2023-02-08T16:35:01.460Z,0.23
2023-02-08T16:37:34.966Z,0.10
2023-02-08T16:40:23.822Z,0.20
2023-02-08T16:42:51.638Z,0.18
2023-02-08T16:45:21.091Z,0.02
2023-02-08T16:47:54.289Z,-0.05
2023-02-08T16:50:24.822Z,-0.15
2023-02-08T16:53:00.389Z,-0.19
2023-02-08T16:55:31.779Z,-0.26
2023-02-08T16:58:00.023Z,-0.28
2023-02-08T17:00:35.854Z,-0.20
2023-02-08T17:03:03.417Z,-0.17
2023-02-08T17:05:36.478Z,-0.34
2023-02-08T17:08:12.737Z,-0.33
2023-02-08T17:10:41.054Z,-0.35
2023-02-08T17:13:20.342Z,-0.30
2023-02-08T17:15:50.789Z,-0.29
2023-02-08T17:18:18.839Z,-0.35
2023-02-08T17:20:47.456Z,-0.34
2023-02-08T17:23:18.420Z,-0.37
2023-02-08T17:25:46.270Z,-0.35
2023-02-08T17:28:18.871Z,-0.41
2023-02-08T17:30:48.716Z,-0.40
2023-02-08T17:33:19.625Z,-0.51
2023-02-08T17:35:49.825Z,-0.56
2023-02-08T17:38:18.844Z,-0.57
2023-02-08T17:40:46.645Z,-0.66
2023-02-08T17:43:15.052Z,-0.65
2023-02-08T17:45:44.595Z,-0.69
2023-02-08T17:48:15.696Z,-0.68
2023-02-08T17:50:48.040Z,-0.72
2023-02-08T17:53:15.954Z,-0.84
2023-02-08T17:55:45.753Z,-0.82
2023-02-08T17:58:13.662Z,-0.86
2023-02-08T18:00:41.458Z,-0.90
2023-02-08T18:03:09.526Z,-0.91
2023-02-08T18:05:37.631Z,-0.95
2023-02-08T18:08:05.333Z,-1.03
2023-02-08T18:10:33.212Z,-1.03
2023-02-08T18:13:00.823Z,-1.05
2023-02-08T18:15:28.483Z,-1.03
2023-02-08T18:17:56.284Z,-1.12
2023-02-08T18:20:23.807Z,-1.19
2023-02-08T18:22:51.338Z,-1.25
2023-02-08T18:25:20.593Z,-1.18
2023-02-08T18:27:48.709Z,-1.19
2023-02-08T18:30:16.274Z,-1.28
2023-02-08T18:32:44.164Z,-1.18
2023-02-08T18:35:11.875Z,-1.23
2023-02-08T18:37:39.883Z,-1.15
2023-02-08T18:40:09.090Z,-1.24
2023-02-08T18:42:36.862Z,-1.25
2023-02-08T18:45:06.247Z,-1.29
2023-02-08T18:47:37.976Z,-1.33
2023-02-08T18:50:06.490Z,-1.42
2023-02-08T18:52:34.665Z,-1.58
2023-02-08T18:55:02.402Z,-1.64
2023-02-08T18:57:30.128Z,-1.69
2023-02-08T18:59:58.048Z,-1.68
2023-02-08T19:02:26.483Z,-1.58
2023-02-08T19:04:54.110Z,-1.70
2023-02-08T19:07:22.984Z,-1.78
2023-02-08T19:09:50.620Z,-1.85
2023-02-08T19:12:21.172Z,-1.96
2023-02-08T19:14:51.577Z,-1.96
2023-02-08T19:17:21.129Z,-1.94
2023-02-08T19:19:49.045Z,-1.87
2023-02-08T19:22:16.595Z,-1.82
2023-02-08T19:24:44.107Z,-1.83
2023-02-08T19:27:11.996Z,-1.85
2023-02-08T19:29:39.600Z,-1.91
2023-02-08T19:32:08.242Z,-1.96
2023-02-08T19:34:36.175Z,-2.03
2023-02-08T19:37:03.748Z,-2.10
2023-02-08T19:39:31.308Z,-2.16
2023-02-08T19:41:59.314Z,-2.13
2023-02-08T19:44:30.103Z,-2.13
2023-02-08T19:46:58.234Z,-2.19
2023-02-08T19:49:28.446Z,-2.22
2023-02-08T19:51:56.869Z,-2.17
2023-02-08T19:54:24.826Z,-2.20
2023-02-08T19:56:54.856Z,-2.15
2023-02-08T19:59:25.635Z,-2.10
2023-02-08T20:01:55.391Z,-2.15
2023-02-08T20:04:23.519Z,-2.25
2023-02-08T20:06:53.322Z,-2.30
2023-02-08T20:09:21.409Z,-2.30
2023-02-08T20:11:57.221Z,-2.36
2023-02-08T20:14:28.883Z,-2.46
2023-02-08T20:16:57.573Z,-2.54
2023-02-08T20:19:26.040Z,-2.51
2023-02-08T20:21:53.629Z,-2.44
2023-02-08T20:24:21.961Z,-2.51
2023-02-08T20:26:49.733Z,-2.47
2023-02-08T20:29:17.598Z,-2.46
2023-02-08T20:31:47.977Z,-2.49
2023-02-08T20:34:18.760Z,-2.53
2023-02-08T20:37:05.762Z,-2.71
2023-02-08T20:39:35.473Z,-2.79
2023-02-08T20:42:03.564Z,-2.91
2023-02-08T20:44:31.917Z,-2.88
2023-02-08T20:46:59.612Z,-2.87
2023-02-08T20:49:27.720Z,-2.88
2023-02-08T20:51:55.705Z,-2.86
2023-02-08T20:54:24.739Z,-2.82
2023-02-08T20:56:54.239Z,-2.85
2023-02-08T20:59:22.329Z,-2.82
2023-02-08T21:01:50.303Z,-2.69
2023-02-08T21:04:20.376Z,-2.65
2023-02-08T21:06:48.030Z,-2.74
2023-02-08T21:09:17.918Z,-2.81
2023-02-08T21:11:46.217Z,-2.87
2023-02-08T21:14:18.830Z,-2.91
2023-02-08T21:16:56.472Z,-2.75
2023-02-08T21:19:25.593Z,-2.76
2023-02-08T21:21:55.901Z,-2.66
2023-02-08T21:24:24.594Z,-2.56
2023-02-08T21:26:53.917Z,-2.63
2023-02-08T21:29:23.232Z,-2.79
2023-02-08T21:31:53.627Z,-2.89
2023-02-08T21:34:21.549Z,-2.95
2023-02-08T21:36:49.530Z,-3.00
2023-02-08T21:39:17.066Z,-3.04
2023-02-08T21:41:44.595Z,-3.09
2023-02-08T21:44:12.407Z,-3.21
2023-02-08T21:46:39.947Z,-3.26
2023-02-08T21:49:26.099Z,-3.26
2023-02-08T21:52:12.659Z,-3.18
2023-02-08T21:54:46.468Z,-3.11
2023-02-08T21:57:14.256Z,-3.02
2023-02-08T21:59:42.211Z,-3.01
2023-02-08T22:02:24.675Z,-3.09
2023-02-08T22:05:12.516Z,-3.08
2023-02-08T22:07:54.561Z,-3.04
2023-02-08T22:10:24.942Z,-3.01
2023-02-08T22:12:54.018Z,-3.00
2023-02-08T22:15:24.542Z,-3.04
2023-02-08T22:17:53.940Z,-3.02
2023-02-08T22:20:22.512Z,-3.04
2023-02-08T22:22:53.090Z,-3.05
2023-02-08T22:25:23.689Z,-3.14
2023-02-08T22:27:51.236Z,-3.06
2023-02-08T22:30:19.835Z,-3.05
2023-02-08T22:32:49.238Z,-3.10
2023-02-08T22:35:18.255Z,-3.22
2023-02-08T22:37:45.789Z,-3.24
2023-02-08T22:40:13.573Z,-3.39
2023-02-08T22:42:41.340Z,-3.44
2023-02-08T22:45:09.891Z,-3.39
2023-02-08T22:47:37.807Z,-3.35
2023-02-08T22:50:06.877Z,-3.41
2023-02-08T22:52:34.676Z,-3.48
2023-02-08T22:55:04.252Z,-3.46
2023-02-08T22:57:33.708Z,-3.52
2023-02-08T23:00:01.485Z,-3.54
2023-02-08T23:02:29.618Z,-3.58
2023-02-08T23:04:57.214Z,-3.60
2023-02-08T23:07:24.783Z,-3.61
2023-02-08T23:09:52.532Z,-3.46
2023-02-08T23:12:20.180Z,-3.44
2023-02-08T23:14:49.403Z,-3.34
2023-02-08T23:17:17.216Z,-3.34
2023-02-08T23:19:44.848Z,-3.26
2023-02-08T23:22:12.439Z,-3.17
2023-02-08T23:24:40.280Z,-3.24
2023-02-08T23:27:07.774Z,-3.45
2023-02-08T23:29:35.330Z,-3.61
2023-02-08T23:32:03.368Z,-3.76
2023-02-08T23:34:30.907Z,-3.83
2023-02-08T23:36:58.697Z,-3.83
2023-02-08T23:39:26.502Z,-3.75
2023-02-08T23:41:56.089Z,-3.63
2023-02-08T23:44:25.102Z,-3.58
2023-02-08T23:46:53.005Z,-3.56
2023-02-08T23:49:20.573Z,-3.41
2023-02-08T23:51:48.150Z,-3.33
2023-02-08T23:54:15.925Z,-3.31
2023-02-08T23:56:43.443Z,-3.51
2023-02-08T23:59:11.112Z,-3.65
